sensor_id;sensor_type;location;lat;lon;timestamp;temperature;humidity
16964;DHT22;8598;50.508;10.436;2022-08-27T00:02:16;17.60;99.90
16964;DHT22;8598;50.508;10.436;2022-08-27T00:04:45;17.80;99.90
16964;DHT22;8598;50.508;10.436;2022-08-27T00:07:12;19.40;99.90
16964;DHT22;8598;50.508;10.436;2022-08-27T00:09:39;17.80;99.90
16964;DHT22;8598;50.508;10.436;2022-08-27T00:12:07;19.10;99.90
16964;DHT22;8598;50.508;10.436;2022-08-27T00:14:39;18.80;99.90
16964;DHT22;8598;50.508;10.436;2022-08-27T00:17:06;17.60;99.90
16964;DHT22;8598;50.508;10.436;2022-08-27T00:19:33;17.60;99.90
16964;DHT22;8598;50.508;10.436;2022-08-27T00:22:03;17.40;99.90
16964;DHT22;8598;50.508;10.436;2022-08-27T00:24:30;17.50;99.90
16964;DHT22;8598;50.508;10.436;2022-08-27T00:26:56;17.70;99.90
16964;DHT22;8598;50.508;10.436;2022-08-27T00:29:24;18.60;99.90
16964;DHT22;8598;50.508;10.436;2022-08-27T00:31:51;18.50;99.90
16964;DHT22;8598;50.508;10.436;2022-08-27T00:34:19;19.10;99.90
16964;DHT22;8598;50.508;10.436;2022-08-27T00:36:46;19.30;99.90
16964;DHT22;8598;50.508;10.436;2022-08-27T00:39:14;18.70;99.90
16964;DHT22;8598;50.508;10.436;2022-08-27T00:41:41;19.40;99.90
16964;DHT22;8598;50.508;10.436;2022-08-27T00:44:09;18.80;99.90
16964;DHT22;8598;50.508;10.436;2022-08-27T00:46:39;18.70;99.90
16964;DHT22;8598;50.508;10.436;2022-08-27T00:49:12;18.40;99.90
16964;DHT22;8598;50.508;10.436;2022-08-27T00:51:40;17.60;99.90
16964;DHT22;8598;50.508;10.436;2022-08-27T00:54:08;17.90;99.90
16964;DHT22;8598;50.508;10.436;2022-08-27T00:56:40;17.50;99.90
16964;DHT22;8598;50.508;10.436;2022-08-27T00:59:10;19.20;99.90
16964;DHT22;8598;50.508;10.436;2022-08-27T01:01:45;18.20;99.90
16964;DHT22;8598;50.508;10.436;2022-08-27T01:04:26;17.80;99.90
16964;DHT22;8598;50.508;10.436;2022-08-27T01:06:54;17.60;99.90
16964;DHT22;8598;50.508;10.436;2022-08-27T01:09:21;17.60;99.90
16964;DHT22;8598;50.508;10.436;2022-08-27T01:11:50;18.70;99.90
16964;DHT22;8598;50.508;10.436;2022-08-27T01:14:17;18.10;99.90
16964;DHT22;8598;50.508;10.436;2022-08-27T01:16:48;17.60;99.90
16964;DHT22;8598;50.508;10.436;2022-08-27T01:19:21;18.50;99.90
16964;DHT22;8598;50.508;10.436;2022-08-27T01:21:54;18.90;99.90
16964;DHT22;8598;50.508;10.436;2022-08-27T01:24:33;18.60;99.90
16964;DHT22;8598;50.508;10.436;2022-08-27T01:27:06;19.20;99.90
16964;DHT22;8598;50.508;10.436;2022-08-27T01:29:34;19.20;99.90
16964;DHT22;8598;50.508;10.436;2022-08-27T01:32:06;18.80;99.90
16964;DHT22;8598;50.508;10.436;2022-08-27T01:34:34;17.50;99.90
16964;DHT22;8598;50.508;10.436;2022-08-27T01:37:01;18.20;99.90
16964;DHT22;8598;50.508;10.436;2022-08-27T01:39:32;19.20;99.90
16964;DHT22;8598;50.508;10.436;2022-08-27T01:42:04;19.20;99.90
16964;DHT22;8598;50.508;10.436;2022-08-27T01:44:41;17.40;99.90
16964;DHT22;8598;50.508;10.436;2022-08-27T01:47:08;18.50;99.90
16964;DHT22;8598;50.508;10.436;2022-08-27T01:49:35;17.10;99.90
16964;DHT22;8598;50.508;10.436;2022-08-27T01:52:03;17.30;99.90
16964;DHT22;8598;50.508;10.436;2022-08-27T01:54:31;17.40;99.90
16964;DHT22;8598;50.508;10.436;2022-08-27T01:56:59;19.00;99.90
16964;DHT22;8598;50.508;10.436;2022-08-27T01:59:26;18.60;99.90
16964;DHT22;8598;50.508;10.436;2022-08-27T02:01:54;19.10;99.90
16964;DHT22;8598;50.508;10.436;2022-08-27T02:04:22;17.70;99.90
16964;DHT22;8598;50.508;10.436;2022-08-27T02:06:49;19.20;99.90
16964;DHT22;8598;50.508;10.436;2022-08-27T02:09:16;18.10;99.90
16964;DHT22;8598;50.508;10.436;2022-08-27T02:11:43;18.10;99.90
16964;DHT22;8598;50.508;10.436;2022-08-27T02:14:11;18.70;99.90
16964;DHT22;8598;50.508;10.436;2022-08-27T02:16:38;19.30;99.90
16964;DHT22;8598;50.508;10.436;2022-08-27T02:19:05;17.60;99.90
16964;DHT22;8598;50.508;10.436;2022-08-27T02:21:31;18.80;99.90
16964;DHT22;8598;50.508;10.436;2022-08-27T02:23:59;19.30;99.90
16964;DHT22;8598;50.508;10.436;2022-08-27T02:26:25;17.80;99.90
16964;DHT22;8598;50.508;10.436;2022-08-27T02:28:53;19.00;99.90
16964;DHT22;8598;50.508;10.436;2022-08-27T02:31:21;17.90;99.90
16964;DHT22;8598;50.508;10.436;2022-08-27T02:33:48;17.90;99.90
16964;DHT22;8598;50.508;10.436;2022-08-27T02:36:21;18.00;99.90
16964;DHT22;8598;50.508;10.436;2022-08-27T02:38:50;18.00;99.90
16964;DHT22;8598;50.508;10.436;2022-08-27T02:41:17;19.10;99.90
16964;DHT22;8598;50.508;10.436;2022-08-27T02:43:44;19.70;99.90
16964;DHT22;8598;50.508;10.436;2022-08-27T02:46:11;19.70;99.90
16964;DHT22;8598;50.508;10.436;2022-08-27T02:48:39;19.70;99.90
16964;DHT22;8598;50.508;10.436;2022-08-27T02:51:07;18.50;99.90
16964;DHT22;8598;50.508;10.436;2022-08-27T02:53:35;20.10;99.90
16964;DHT22;8598;50.508;10.436;2022-08-27T02:56:03;20.20;99.90
16964;DHT22;8598;50.508;10.436;2022-08-27T02:58:30;18.80;99.90
16964;DHT22;8598;50.508;10.436;2022-08-27T03:00:58;19.00;99.90
16964;DHT22;8598;50.508;10.436;2022-08-27T03:03:25;20.10;99.90
16964;DHT22;8598;50.508;10.436;2022-08-27T03:05:54;20.20;99.90
16964;DHT22;8598;50.508;10.436;2022-08-27T03:08:20;20.20;99.90
16964;DHT22;8598;50.508;10.436;2022-08-27T03:10:49;19.00;99.90
16964;DHT22;8598;50.508;10.436;2022-08-27T03:13:16;20.50;99.90
16964;DHT22;8598;50.508;10.436;2022-08-27T03:15:43;20.70;99.90
16964;DHT22;8598;50.508;10.436;2022-08-27T03:18:10;18.90;99.90
16964;DHT22;8598;50.508;10.436;2022-08-27T03:20:48;20.20;99.90
16964;DHT22;8598;50.508;10.436;2022-08-27T03:23:19;20.80;99.90
16964;DHT22;8598;50.508;10.436;2022-08-27T03:25:49;20.20;99.90
16964;DHT22;8598;50.508;10.436;2022-08-27T03:28:17;20.90;99.90
16964;DHT22;8598;50.508;10.436;2022-08-27T03:30:47;19.80;99.90
16964;DHT22;8598;50.508;10.436;2022-08-27T03:33:16;19.20;99.90
16964;DHT22;8598;50.508;10.436;2022-08-27T03:35:44;21.00;99.90
16964;DHT22;8598;50.508;10.436;2022-08-27T03:38:11;20.10;99.90
16964;DHT22;8598;50.508;10.436;2022-08-27T03:40:39;19.20;99.90
16964;DHT22;8598;50.508;10.436;2022-08-27T03:43:06;19.10;99.90
16964;DHT22;8598;50.508;10.436;2022-08-27T03:45:33;19.10;99.90
16964;DHT22;8598;50.508;10.436;2022-08-27T03:48:00;19.80;99.90
16964;DHT22;8598;50.508;10.436;2022-08-27T03:50:27;18.40;99.90
16964;DHT22;8598;50.508;10.436;2022-08-27T03:52:54;19.50;99.90
16964;DHT22;8598;50.508;10.436;2022-08-27T03:55:21;18.70;99.90
16964;DHT22;8598;50.508;10.436;2022-08-27T03:57:49;19.00;99.90
16964;DHT22;8598;50.508;10.436;2022-08-27T04:00:16;20.00;99.90
16964;DHT22;8598;50.508;10.436;2022-08-27T04:02:43;20.00;99.90
16964;DHT22;8598;50.508;10.436;2022-08-27T04:05:12;18.60;99.90
16964;DHT22;8598;50.508;10.436;2022-08-27T04:07:40;19.00;99.90
16964;DHT22;8598;50.508;10.436;2022-08-27T04:10:09;18.60;99.90
16964;DHT22;8598;50.508;10.436;2022-08-27T04:12:37;18.80;99.90
16964;DHT22;8598;50.508;10.436;2022-08-27T04:15:07;18.50;99.90
16964;DHT22;8598;50.508;10.436;2022-08-27T04:17:35;18.70;99.90
16964;DHT22;8598;50.508;10.436;2022-08-27T04:20:02;18.70;99.90
16964;DHT22;8598;50.508;10.436;2022-08-27T04:22:29;18.80;99.90
16964;DHT22;8598;50.508;10.436;2022-08-27T04:24:56;18.70;99.90
16964;DHT22;8598;50.508;10.436;2022-08-27T04:27:23;18.80;99.90
16964;DHT22;8598;50.508;10.436;2022-08-27T04:29:53;19.60;99.90
16964;DHT22;8598;50.508;10.436;2022-08-27T04:32:22;20.30;99.90
16964;DHT22;8598;50.508;10.436;2022-08-27T04:34:52;18.60;99.90
16964;DHT22;8598;50.508;10.436;2022-08-27T04:37:19;18.80;99.90
16964;DHT22;8598;50.508;10.436;2022-08-27T04:39:46;19.10;99.90
16964;DHT22;8598;50.508;10.436;2022-08-27T04:42:15;18.70;99.90
16964;DHT22;8598;50.508;10.436;2022-08-27T04:44:44;20.40;99.90
16964;DHT22;8598;50.508;10.436;2022-08-27T04:47:11;18.80;99.90
16964;DHT22;8598;50.508;10.436;2022-08-27T04:49:40;18.90;99.90
16964;DHT22;8598;50.508;10.436;2022-08-27T04:52:07;20.20;99.90
16964;DHT22;8598;50.508;10.436;2022-08-27T04:54:34;20.00;99.90
16964;DHT22;8598;50.508;10.436;2022-08-27T04:57:01;20.20;99.90
16964;DHT22;8598;50.508;10.436;2022-08-27T04:59:29;19.40;99.90
16964;DHT22;8598;50.508;10.436;2022-08-27T05:01:56;18.90;99.90
16964;DHT22;8598;50.508;10.436;2022-08-27T05:04:23;20.10;99.90
16964;DHT22;8598;50.508;10.436;2022-08-27T05:06:51;20.30;99.90
16964;DHT22;8598;50.508;10.436;2022-08-27T05:09:18;19.10;99.90
16964;DHT22;8598;50.508;10.436;2022-08-27T05:11:45;20.20;99.90
16964;DHT22;8598;50.508;10.436;2022-08-27T05:14:14;20.40;99.90
16964;DHT22;8598;50.508;10.436;2022-08-27T05:16:42;20.50;99.90
16964;DHT22;8598;50.508;10.436;2022-08-27T05:19:10;20.40;99.90
16964;DHT22;8598;50.508;10.436;2022-08-27T05:21:43;19.10;99.90
16964;DHT22;8598;50.508;10.436;2022-08-27T05:24:12;20.40;99.90
16964;DHT22;8598;50.508;10.436;2022-08-27T05:26:45;19.10;99.90
16964;DHT22;8598;50.508;10.436;2022-08-27T05:29:12;20.50;99.90
16964;DHT22;8598;50.508;10.436;2022-08-27T05:31:40;20.00;99.90
16964;DHT22;8598;50.508;10.436;2022-08-27T05:34:07;19.20;99.90
16964;DHT22;8598;50.508;10.436;2022-08-27T05:36:34;19.90;99.90
16964;DHT22;8598;50.508;10.436;2022-08-27T05:39:03;20.20;99.90
16964;DHT22;8598;50.508;10.436;2022-08-27T05:41:32;19.80;99.90
16964;DHT22;8598;50.508;10.436;2022-08-27T05:44:01;19.60;99.90
16964;DHT22;8598;50.508;10.436;2022-08-27T05:46:29;19.60;99.90
16964;DHT22;8598;50.508;10.436;2022-08-27T05:48:57;19.90;99.90
16964;DHT22;8598;50.508;10.436;2022-08-27T05:51:25;19.20;99.90
16964;DHT22;8598;50.508;10.436;2022-08-27T05:53:57;20.40;99.90
16964;DHT22;8598;50.508;10.436;2022-08-27T05:56:26;19.20;99.90
16964;DHT22;8598;50.508;10.436;2022-08-27T05:58:54;20.30;99.90
16964;DHT22;8598;50.508;10.436;2022-08-27T06:01:41;19.30;99.90
16964;DHT22;8598;50.508;10.436;2022-08-27T06:04:09;19.20;99.90
16964;DHT22;8598;50.508;10.436;2022-08-27T06:06:37;19.20;99.90
16964;DHT22;8598;50.508;10.436;2022-08-27T06:09:05;19.30;99.90
16964;DHT22;8598;50.508;10.436;2022-08-27T06:11:32;20.30;99.90
16964;DHT22;8598;50.508;10.436;2022-08-27T06:14:00;21.20;99.90
16964;DHT22;8598;50.508;10.436;2022-08-27T06:16:27;21.00;99.90
16964;DHT22;8598;50.508;10.436;2022-08-27T06:18:54;19.20;99.90
16964;DHT22;8598;50.508;10.436;2022-08-27T06:21:22;20.40;99.90
16964;DHT22;8598;50.508;10.436;2022-08-27T06:23:51;20.30;99.90
16964;DHT22;8598;50.508;10.436;2022-08-27T06:26:19;20.80;99.90
16964;DHT22;8598;50.508;10.436;2022-08-27T06:28:47;19.30;99.90
16964;DHT22;8598;50.508;10.436;2022-08-27T06:31:18;19.30;99.90
16964;DHT22;8598;50.508;10.436;2022-08-27T06:33:46;20.60;99.90
16964;DHT22;8598;50.508;10.436;2022-08-27T06:36:15;20.60;99.90
16964;DHT22;8598;50.508;10.436;2022-08-27T06:38:42;18.90;99.90
16964;DHT22;8598;50.508;10.436;2022-08-27T06:41:11;19.40;99.90
16964;DHT22;8598;50.508;10.436;2022-08-27T06:43:39;20.90;99.90
16964;DHT22;8598;50.508;10.436;2022-08-27T06:46:09;20.70;99.90
16964;DHT22;8598;50.508;10.436;2022-08-27T06:48:38;19.40;99.90
16964;DHT22;8598;50.508;10.436;2022-08-27T06:51:10;19.50;99.90
16964;DHT22;8598;50.508;10.436;2022-08-27T06:53:38;19.40;99.90
16964;DHT22;8598;50.508;10.436;2022-08-27T06:56:05;20.80;99.90
16964;DHT22;8598;50.508;10.436;2022-08-27T06:58:32;19.50;99.90
16964;DHT22;8598;50.508;10.436;2022-08-27T07:01:01;19.60;99.90
16964;DHT22;8598;50.508;10.436;2022-08-27T07:03:28;20.70;99.90
16964;DHT22;8598;50.508;10.436;2022-08-27T07:06:02;19.90;99.90
16964;DHT22;8598;50.508;10.436;2022-08-27T07:08:29;20.30;99.90
16964;DHT22;8598;50.508;10.436;2022-08-27T07:10:56;20.50;99.90
16964;DHT22;8598;50.508;10.436;2022-08-27T07:13:23;19.40;99.90
16964;DHT22;8598;50.508;10.436;2022-08-27T07:15:50;20.20;99.90
16964;DHT22;8598;50.508;10.436;2022-08-27T07:18:17;20.70;99.90
16964;DHT22;8598;50.508;10.436;2022-08-27T07:20:43;19.40;99.90
16964;DHT22;8598;50.508;10.436;2022-08-27T07:23:11;19.50;99.90
16964;DHT22;8598;50.508;10.436;2022-08-27T07:25:40;20.60;99.90
16964;DHT22;8598;50.508;10.436;2022-08-27T07:28:07;20.80;99.90
16964;DHT22;8598;50.508;10.436;2022-08-27T07:30:34;20.40;99.90
16964;DHT22;8598;50.508;10.436;2022-08-27T07:33:01;19.70;99.90
16964;DHT22;8598;50.508;10.436;2022-08-27T07:35:28;19.80;99.90
16964;DHT22;8598;50.508;10.436;2022-08-27T07:37:57;20.90;99.90
16964;DHT22;8598;50.508;10.436;2022-08-27T07:40:30;19.80;99.90
16964;DHT22;8598;50.508;10.436;2022-08-27T07:42:57;19.90;99.90
16964;DHT22;8598;50.508;10.436;2022-08-27T07:45:49;20.70;99.90
16964;DHT22;8598;50.508;10.436;2022-08-27T07:48:20;20.00;99.90
16964;DHT22;8598;50.508;10.436;2022-08-27T07:50:47;20.60;99.90
16964;DHT22;8598;50.508;10.436;2022-08-27T07:53:14;20.70;99.90
16964;DHT22;8598;50.508;10.436;2022-08-27T07:55:42;20.30;99.90
16964;DHT22;8598;50.508;10.436;2022-08-27T07:58:09;20.90;99.90
16964;DHT22;8598;50.508;10.436;2022-08-27T08:00:36;21.30;99.90
16964;DHT22;8598;50.508;10.436;2022-08-27T08:03:03;19.90;99.90
16964;DHT22;8598;50.508;10.436;2022-08-27T08:05:29;20.00;99.90
16964;DHT22;8598;50.508;10.436;2022-08-27T08:07:59;21.40;99.90
16964;DHT22;8598;50.508;10.436;2022-08-27T08:10:25;21.20;99.90
16964;DHT22;8598;50.508;10.436;2022-08-27T08:12:54;21.10;99.90
16964;DHT22;8598;50.508;10.436;2022-08-27T08:15:20;21.20;99.90
16964;DHT22;8598;50.508;10.436;2022-08-27T08:17:47;21.50;99.90
16964;DHT22;8598;50.508;10.436;2022-08-27T08:20:14;20.00;99.90
16964;DHT22;8598;50.508;10.436;2022-08-27T08:22:42;19.90;99.90
16964;DHT22;8598;50.508;10.436;2022-08-27T08:25:09;21.50;99.90
16964;DHT22;8598;50.508;10.436;2022-08-27T08:27:39;20.30;99.90
16964;DHT22;8598;50.508;10.436;2022-08-27T08:30:08;20.30;99.90
16964;DHT22;8598;50.508;10.436;2022-08-27T08:32:35;20.20;99.90
16964;DHT22;8598;50.508;10.436;2022-08-27T08:35:04;22.00;99.90
16964;DHT22;8598;50.508;10.436;2022-08-27T08:37:34;20.60;99.90
16964;DHT22;8598;50.508;10.436;2022-08-27T08:40:05;21.30;99.90
16964;DHT22;8598;50.508;10.436;2022-08-27T08:42:37;20.80;99.90
16964;DHT22;8598;50.508;10.436;2022-08-27T08:45:07;20.70;99.90
16964;DHT22;8598;50.508;10.436;2022-08-27T08:47:43;21.00;99.90
16964;DHT22;8598;50.508;10.436;2022-08-27T08:50:14;21.90;99.90
16964;DHT22;8598;50.508;10.436;2022-08-27T08:52:49;21.00;99.90
16964;DHT22;8598;50.508;10.436;2022-08-27T08:55:34;20.90;99.90
16964;DHT22;8598;50.508;10.436;2022-08-27T08:58:18;20.90;99.90
16964;DHT22;8598;50.508;10.436;2022-08-27T09:00:51;21.90;99.90
16964;DHT22;8598;50.508;10.436;2022-08-27T09:03:19;22.20;99.90
16964;DHT22;8598;50.508;10.436;2022-08-27T09:05:50;22.00;99.90
16964;DHT22;8598;50.508;10.436;2022-08-27T09:08:22;20.70;99.90
16964;DHT22;8598;50.508;10.436;2022-08-27T09:10:57;22.10;99.90
16964;DHT22;8598;50.508;10.436;2022-08-27T09:13:27;21.40;99.90
16964;DHT22;8598;50.508;10.436;2022-08-27T09:16:00;22.90;99.90
16964;DHT22;8598;50.508;10.436;2022-08-27T09:18:27;22.30;99.90
16964;DHT22;8598;50.508;10.436;2022-08-27T09:20:59;22.50;99.90
16964;DHT22;8598;50.508;10.436;2022-08-27T09:23:36;22.60;99.90
16964;DHT22;8598;50.508;10.436;2022-08-27T09:26:16;24.10;99.90
16964;DHT22;8598;50.508;10.436;2022-08-27T09:28:44;23.60;99.90
16964;DHT22;8598;50.508;10.436;2022-08-27T09:31:34;23.90;99.90
16964;DHT22;8598;50.508;10.436;2022-08-27T09:34:04;24.20;99.90
16964;DHT22;8598;50.508;10.436;2022-08-27T09:36:30;25.40;99.90
16964;DHT22;8598;50.508;10.436;2022-08-27T09:38:59;24.80;99.90
16964;DHT22;8598;50.508;10.436;2022-08-27T09:41:28;24.10;99.90
16964;DHT22;8598;50.508;10.436;2022-08-27T09:43:58;23.70;99.90
16964;DHT22;8598;50.508;10.436;2022-08-27T09:46:26;23.70;99.90
16964;DHT22;8598;50.508;10.436;2022-08-27T09:48:54;24.60;99.90
16964;DHT22;8598;50.508;10.436;2022-08-27T09:51:24;24.30;99.90
16964;DHT22;8598;50.508;10.436;2022-08-27T09:53:53;22.80;99.90
16964;DHT22;8598;50.508;10.436;2022-08-27T09:56:25;22.90;99.90
16964;DHT22;8598;50.508;10.436;2022-08-27T09:58:54;23.00;99.90
16964;DHT22;8598;50.508;10.436;2022-08-27T10:01:24;23.00;99.90
16964;DHT22;8598;50.508;10.436;2022-08-27T10:04:05;22.90;99.90
16964;DHT22;8598;50.508;10.436;2022-08-27T10:06:32;22.50;99.90
16964;DHT22;8598;50.508;10.436;2022-08-27T10:09:05;22.20;99.90
16964;DHT22;8598;50.508;10.436;2022-08-27T10:11:36;22.70;99.90
16964;DHT22;8598;50.508;10.436;2022-08-27T10:14:08;22.00;99.90
16964;DHT22;8598;50.508;10.436;2022-08-27T10:16:56;22.40;99.90
16964;DHT22;8598;50.508;10.436;2022-08-27T10:19:39;22.30;99.90
16964;DHT22;8598;50.508;10.436;2022-08-27T10:22:15;22.70;99.90
16964;DHT22;8598;50.508;10.436;2022-08-27T10:24:56;23.50;99.90
16964;DHT22;8598;50.508;10.436;2022-08-27T10:27:31;23.60;99.90
16964;DHT22;8598;50.508;10.436;2022-08-27T10:30:03;23.40;99.90
16964;DHT22;8598;50.508;10.436;2022-08-27T10:32:46;24.20;99.90
16964;DHT22;8598;50.508;10.436;2022-08-27T10:35:19;23.40;99.90
16964;DHT22;8598;50.508;10.436;2022-08-27T10:37:56;23.30;99.90
16964;DHT22;8598;50.508;10.436;2022-08-27T10:40:28;24.20;99.90
16964;DHT22;8598;50.508;10.436;2022-08-27T10:43:08;23.20;99.90
16964;DHT22;8598;50.508;10.436;2022-08-27T10:45:46;23.40;99.90
16964;DHT22;8598;50.508;10.436;2022-08-27T10:48:21;25.20;99.90
16964;DHT22;8598;50.508;10.436;2022-08-27T10:50:53;24.10;99.90
16964;DHT22;8598;50.508;10.436;2022-08-27T10:53:29;22.90;99.90
16964;DHT22;8598;50.508;10.436;2022-08-27T10:56:07;22.90;99.90
16964;DHT22;8598;50.508;10.436;2022-08-27T10:58:44;23.20;99.90
16964;DHT22;8598;50.508;10.436;2022-08-27T11:01:19;23.30;99.90
16964;DHT22;8598;50.508;10.436;2022-08-27T11:03:50;24.20;99.90
16964;DHT22;8598;50.508;10.436;2022-08-27T11:06:25;23.10;99.90
16964;DHT22;8598;50.508;10.436;2022-08-27T11:08:56;23.50;99.90
16964;DHT22;8598;50.508;10.436;2022-08-27T11:11:32;23.90;99.90
16964;DHT22;8598;50.508;10.436;2022-08-27T11:14:01;23.70;99.90
16964;DHT22;8598;50.508;10.436;2022-08-27T11:16:33;24.00;99.90
16964;DHT22;8598;50.508;10.436;2022-08-27T11:19:07;22.80;99.90
16964;DHT22;8598;50.508;10.436;2022-08-27T11:21:43;22.80;99.90
16964;DHT22;8598;50.508;10.436;2022-08-27T11:24:19;23.10;99.90
16964;DHT22;8598;50.508;10.436;2022-08-27T11:26:49;23.10;99.90
16964;DHT22;8598;50.508;10.436;2022-08-27T11:29:23;23.50;99.90
16964;DHT22;8598;50.508;10.436;2022-08-27T11:31:59;24.10;99.90
16964;DHT22;8598;50.508;10.436;2022-08-27T11:34:36;24.10;99.90
16964;DHT22;8598;50.508;10.436;2022-08-27T11:37:23;24.70;99.90
16964;DHT22;8598;50.508;10.436;2022-08-27T11:40:13;23.70;99.90
16964;DHT22;8598;50.508;10.436;2022-08-27T11:42:44;22.80;99.90
16964;DHT22;8598;50.508;10.436;2022-08-27T11:45:16;24.20;99.90
16964;DHT22;8598;50.508;10.436;2022-08-27T11:47:51;23.50;99.90
16964;DHT22;8598;50.508;10.436;2022-08-27T11:50:20;24.10;99.90
16964;DHT22;8598;50.508;10.436;2022-08-27T11:52:58;23.30;99.90
16964;DHT22;8598;50.508;10.436;2022-08-27T11:55:30;23.10;99.90
16964;DHT22;8598;50.508;10.436;2022-08-27T11:58:07;23.10;99.90
16964;DHT22;8598;50.508;10.436;2022-08-27T12:00:36;24.00;99.90
16964;DHT22;8598;50.508;10.436;2022-08-27T12:03:05;23.40;99.90
16964;DHT22;8598;50.508;10.436;2022-08-27T12:05:37;23.70;99.90
16964;DHT22;8598;50.508;10.436;2022-08-27T12:08:24;24.10;99.90
16964;DHT22;8598;50.508;10.436;2022-08-27T12:11:05;24.10;99.90
16964;DHT22;8598;50.508;10.436;2022-08-27T12:13:39;23.90;99.90
16964;DHT22;8598;50.508;10.436;2022-08-27T12:16:15;24.00;99.90
16964;DHT22;8598;50.508;10.436;2022-08-27T12:18:55;23.70;99.90
16964;DHT22;8598;50.508;10.436;2022-08-27T12:21:33;23.40;99.90
16964;DHT22;8598;50.508;10.436;2022-08-27T12:24:27;23.90;99.90
16964;DHT22;8598;50.508;10.436;2022-08-27T12:26:58;23.70;99.90
16964;DHT22;8598;50.508;10.436;2022-08-27T12:29:32;25.00;99.90
16964;DHT22;8598;50.508;10.436;2022-08-27T12:32:03;23.40;99.90
16964;DHT22;8598;50.508;10.436;2022-08-27T12:34:41;23.50;99.90
16964;DHT22;8598;50.508;10.436;2022-08-27T12:37:10;23.30;99.90
16964;DHT22;8598;50.508;10.436;2022-08-27T12:39:42;23.60;99.90
16964;DHT22;8598;50.508;10.436;2022-08-27T12:42:16;23.40;99.90
16964;DHT22;8598;50.508;10.436;2022-08-27T12:44:44;23.00;99.90
16964;DHT22;8598;50.508;10.436;2022-08-27T12:47:12;23.10;99.90
16964;DHT22;8598;50.508;10.436;2022-08-27T12:49:44;23.20;99.90
16964;DHT22;8598;50.508;10.436;2022-08-27T12:52:30;23.30;99.90
16964;DHT22;8598;50.508;10.436;2022-08-27T12:55:11;24.00;99.90
16964;DHT22;8598;50.508;10.436;2022-08-27T12:57:44;23.30;99.90
16964;DHT22;8598;50.508;10.436;2022-08-27T13:00:16;23.40;99.90
16964;DHT22;8598;50.508;10.436;2022-08-27T13:03:04;23.30;99.90
16964;DHT22;8598;50.508;10.436;2022-08-27T13:05:37;23.30;99.90
16964;DHT22;8598;50.508;10.436;2022-08-27T13:08:04;24.40;99.90
16964;DHT22;8598;50.508;10.436;2022-08-27T13:10:32;22.90;99.90
16964;DHT22;8598;50.508;10.436;2022-08-27T13:13:03;23.70;99.90
16964;DHT22;8598;50.508;10.436;2022-08-27T13:15:31;22.80;99.90
16964;DHT22;8598;50.508;10.436;2022-08-27T13:18:00;22.70;99.90
16964;DHT22;8598;50.508;10.436;2022-08-27T13:20:31;21.80;99.90
16964;DHT22;8598;50.508;10.436;2022-08-27T13:23:00;22.70;99.90
16964;DHT22;8598;50.508;10.436;2022-08-27T13:25:30;22.70;99.90
16964;DHT22;8598;50.508;10.436;2022-08-27T13:28:01;22.90;99.90
16964;DHT22;8598;50.508;10.436;2022-08-27T13:30:33;22.50;99.90
16964;DHT22;8598;50.508;10.436;2022-08-27T13:33:02;22.80;99.90
16964;DHT22;8598;50.508;10.436;2022-08-27T13:35:30;22.90;99.90
16964;DHT22;8598;50.508;10.436;2022-08-27T13:37:57;24.00;99.90
16964;DHT22;8598;50.508;10.436;2022-08-27T13:40:28;22.70;99.90
16964;DHT22;8598;50.508;10.436;2022-08-27T13:43:02;22.80;99.90
16964;DHT22;8598;50.508;10.436;2022-08-27T13:45:30;22.60;99.90
16964;DHT22;8598;50.508;10.436;2022-08-27T13:47:58;22.40;99.90
16964;DHT22;8598;50.508;10.436;2022-08-27T13:50:31;22.90;99.90
16964;DHT22;8598;50.508;10.436;2022-08-27T13:53:04;23.70;99.90
16964;DHT22;8598;50.508;10.436;2022-08-27T13:55:50;23.00;99.90
16964;DHT22;8598;50.508;10.436;2022-08-27T13:58:25;23.80;99.90
16964;DHT22;8598;50.508;10.436;2022-08-27T14:00:52;23.10;99.90
16964;DHT22;8598;50.508;10.436;2022-08-27T14:03:28;24.70;99.90
16964;DHT22;8598;50.508;10.436;2022-08-27T14:05:56;23.60;99.90
16964;DHT22;8598;50.508;10.436;2022-08-27T14:08:28;23.10;99.90
16964;DHT22;8598;50.508;10.436;2022-08-27T14:11:00;22.60;99.90
16964;DHT22;8598;50.508;10.436;2022-08-27T14:13:36;22.90;99.90
16964;DHT22;8598;50.508;10.436;2022-08-27T14:16:14;22.70;99.90
16964;DHT22;8598;50.508;10.436;2022-08-27T14:18:50;22.70;99.90
16964;DHT22;8598;50.508;10.436;2022-08-27T14:21:18;22.80;99.90
16964;DHT22;8598;50.508;10.436;2022-08-27T14:23:45;22.90;99.90
16964;DHT22;8598;50.508;10.436;2022-08-27T14:26:13;24.10;99.90
16964;DHT22;8598;50.508;10.436;2022-08-27T14:28:43;22.70;99.90
16964;DHT22;8598;50.508;10.436;2022-08-27T14:31:10;22.90;99.90
16964;DHT22;8598;50.508;10.436;2022-08-27T14:33:37;23.20;99.90
16964;DHT22;8598;50.508;10.436;2022-08-27T14:36:05;23.80;99.90
16964;DHT22;8598;50.508;10.436;2022-08-27T14:38:33;22.60;99.90
16964;DHT22;8598;50.508;10.436;2022-08-27T14:41:01;21.80;99.90
16964;DHT22;8598;50.508;10.436;2022-08-27T14:43:28;23.60;99.90
16964;DHT22;8598;50.508;10.436;2022-08-27T14:45:57;22.70;99.90
16964;DHT22;8598;50.508;10.436;2022-08-27T14:48:26;23.40;99.90
16964;DHT22;8598;50.508;10.436;2022-08-27T14:50:55;23.80;99.90
16964;DHT22;8598;50.508;10.436;2022-08-27T14:53:23;22.80;99.90
16964;DHT22;8598;50.508;10.436;2022-08-27T14:55:50;22.70;99.90
16964;DHT22;8598;50.508;10.436;2022-08-27T14:58:17;22.50;99.90
16964;DHT22;8598;50.508;10.436;2022-08-27T15:00:45;22.50;99.90
16964;DHT22;8598;50.508;10.436;2022-08-27T15:03:13;23.50;99.90
16964;DHT22;8598;50.508;10.436;2022-08-27T15:05:40;22.30;99.90
16964;DHT22;8598;50.508;10.436;2022-08-27T15:08:07;22.30;99.90
16964;DHT22;8598;50.508;10.436;2022-08-27T15:10:37;22.10;99.90
16964;DHT22;8598;50.508;10.436;2022-08-27T15:13:04;23.50;99.90
16964;DHT22;8598;50.508;10.436;2022-08-27T15:15:31;23.30;99.90
16964;DHT22;8598;50.508;10.436;2022-08-27T15:17:58;22.30;99.90
16964;DHT22;8598;50.508;10.436;2022-08-27T15:20:26;22.70;99.90
16964;DHT22;8598;50.508;10.436;2022-08-27T15:22:53;21.50;99.90
16964;DHT22;8598;50.508;10.436;2022-08-27T15:25:20;22.00;99.90
16964;DHT22;8598;50.508;10.436;2022-08-27T15:27:49;22.00;99.90
16964;DHT22;8598;50.508;10.436;2022-08-27T15:30:17;23.00;99.90
16964;DHT22;8598;50.508;10.436;2022-08-27T15:32:48;22.80;99.90
16964;DHT22;8598;50.508;10.436;2022-08-27T15:35:16;23.30;99.90
16964;DHT22;8598;50.508;10.436;2022-08-27T15:37:45;22.00;99.90
16964;DHT22;8598;50.508;10.436;2022-08-27T15:40:14;21.90;99.90
16964;DHT22;8598;50.508;10.436;2022-08-27T15:42:41;22.30;99.90
16964;DHT22;8598;50.508;10.436;2022-08-27T15:45:10;23.50;99.90
16964;DHT22;8598;50.508;10.436;2022-08-27T15:47:38;22.10;99.90
16964;DHT22;8598;50.508;10.436;2022-08-27T15:50:06;22.20;99.90